createdAt,value
2023-04-20T00:00:59.980Z,5.90
2023-04-20T00:03:28.843Z,4.95
2023-04-20T00:06:01.328Z,2.85
2023-04-20T00:08:29.529Z,4.70
2023-04-20T00:10:57.633Z,2.97
2023-04-20T00:13:25.911Z,5.38
2023-04-20T00:15:54.031Z,5.10
2023-04-20T00:18:22.107Z,4.57
2023-04-20T00:20:50.590Z,2.53
2023-04-20T00:23:20.002Z,5.72
2023-04-20T00:25:49.625Z,9.85
2023-04-20T00:28:17.851Z,3.83
2023-04-20T00:30:46.042Z,4.03
2023-04-20T00:33:14.093Z,3.63
2023-04-20T00:35:43.749Z,4.82
2023-04-20T00:38:11.910Z,5.43
2023-04-20T00:40:44.214Z,3.15
2023-04-20T00:43:13.101Z,4.40
2023-04-20T00:45:41.378Z,4.97
2023-04-20T00:48:11.371Z,4.40
2023-04-20T00:50:40.606Z,8.23
2023-04-20T00:53:09.298Z,4.72
2023-04-20T00:55:39.089Z,6.45
2023-04-20T00:58:08.811Z,3.10
2023-04-20T01:00:37.090Z,4.07
2023-04-20T01:03:05.965Z,5.38
2023-04-20T01:05:34.574Z,7.25
2023-04-20T01:08:02.577Z,4.20
2023-04-20T01:10:31.226Z,3.55
2023-04-20T01:13:00.151Z,6.68
2023-04-20T01:15:29.699Z,4.80
2023-04-20T01:17:58.184Z,4.63
2023-04-20T01:20:26.524Z,4.78
2023-04-20T01:22:56.291Z,5.75
2023-04-20T01:25:24.599Z,4.05
2023-04-20T01:27:54.526Z,8.15
2023-04-20T01:30:23.508Z,8.85
2023-04-20T01:32:51.924Z,8.07
2023-04-20T01:35:20.141Z,5.72
2023-04-20T01:37:48.212Z,7.10
2023-04-20T01:40:17.861Z,5.38
2023-04-20T01:42:46.060Z,5.78
2023-04-20T01:45:14.194Z,3.60
2023-04-20T01:47:42.467Z,5.07
2023-04-20T01:50:11.065Z,7.60
2023-04-20T01:52:39.162Z,7.80
2023-04-20T01:55:08.756Z,4.05
2023-04-20T01:57:38.381Z,6.60
2023-04-20T02:00:08.556Z,4.30
2023-04-20T02:02:42.436Z,3.63
2023-04-20T02:05:11.159Z,4.55
2023-04-20T02:07:39.257Z,4.30
2023-04-20T02:10:08.899Z,3.72
2023-04-20T02:12:38.585Z,6.00
2023-04-20T02:15:09.317Z,4.70
2023-04-20T02:17:38.143Z,7.35
2023-04-20T02:20:08.055Z,6.18
2023-04-20T02:22:36.373Z,4.57
2023-04-20T02:25:07.952Z,5.32
2023-04-20T02:27:37.978Z,8.60
2023-04-20T02:30:09.446Z,5.65
2023-04-20T02:32:37.818Z,5.85
2023-04-20T02:35:06.839Z,4.05
2023-04-20T02:37:35.097Z,3.28
2023-04-20T02:40:03.779Z,4.22
2023-04-20T02:42:32.022Z,3.60
2023-04-20T02:45:02.411Z,4.03
2023-04-20T02:47:33.253Z,4.97
2023-04-20T02:50:01.700Z,9.40
2023-04-20T02:52:31.207Z,10.50
2023-04-20T02:55:01.585Z,7.35
2023-04-20T02:57:30.082Z,5.60
2023-04-20T02:59:58.798Z,3.85
2023-04-20T03:02:40.369Z,9.75
2023-04-20T03:05:09.980Z,6.95
2023-04-20T03:07:44.072Z,5.88
2023-04-20T03:10:14.335Z,5.47
2023-04-20T03:12:52.028Z,9.43
2023-04-20T03:15:39.041Z,6.57
2023-04-20T03:18:27.094Z,5.32
2023-04-20T03:20:55.444Z,7.70
2023-04-20T03:23:23.750Z,11.75
2023-04-20T03:25:52.321Z,7.60
2023-04-20T03:28:46.248Z,6.00
2023-04-20T03:31:20.074Z,8.20
2023-04-20T03:33:50.029Z,7.30
2023-04-20T03:36:18.051Z,7.88
2023-04-20T03:38:46.330Z,7.97
2023-04-20T03:41:14.956Z,6.82
2023-04-20T03:43:43.061Z,5.20
2023-04-20T03:46:11.358Z,5.93
2023-04-20T03:48:39.479Z,5.88
2023-04-20T03:51:08.966Z,6.85
2023-04-20T03:53:39.664Z,6.50
2023-04-20T03:56:09.687Z,8.30
2023-04-20T03:58:38.075Z,9.73
2023-04-20T04:01:15.779Z,7.50
2023-04-20T04:03:48.330Z,6.85
2023-04-20T04:06:18.069Z,5.80
2023-04-20T04:08:46.329Z,7.35
2023-04-20T04:11:14.616Z,6.25
2023-04-20T04:13:43.016Z,7.95
2023-04-20T04:16:11.403Z,5.93
2023-04-20T04:18:44.315Z,8.43
2023-04-20T04:21:12.527Z,11.65
2023-04-20T04:23:45.677Z,6.10
2023-04-20T04:26:21.403Z,6.30
2023-04-20T04:28:49.697Z,7.15
2023-04-20T04:31:21.471Z,9.23
2023-04-20T04:33:49.897Z,6.93
2023-04-20T04:36:38.142Z,8.32
2023-04-20T04:39:09.714Z,6.80
2023-04-20T04:41:39.606Z,7.60
2023-04-20T04:44:19.566Z,12.68
2023-04-20T04:46:48.274Z,7.55
2023-04-20T04:49:16.795Z,8.13
2023-04-20T04:51:45.726Z,5.03
2023-04-20T04:54:15.310Z,7.05
2023-04-20T04:56:43.430Z,7.00
2023-04-20T04:59:11.620Z,6.45
2023-04-20T05:01:39.773Z,12.68
2023-04-20T05:04:08.131Z,6.97
2023-04-20T05:06:36.505Z,5.78
2023-04-20T05:09:05.608Z,7.68
2023-04-20T05:11:35.115Z,8.38
2023-04-20T05:14:03.556Z,8.82
2023-04-20T05:16:31.672Z,8.07
2023-04-20T05:18:59.850Z,8.07
2023-04-20T05:21:28.387Z,8.68
2023-04-20T05:23:56.471Z,6.22
2023-04-20T05:26:24.679Z,11.35
2023-04-20T05:28:54.107Z,10.35
2023-04-20T05:31:22.176Z,10.13
2023-04-20T05:33:50.455Z,9.13
2023-04-20T05:36:18.631Z,6.20
2023-04-20T05:38:47.188Z,6.68
2023-04-20T05:41:15.625Z,6.82
2023-04-20T05:43:43.685Z,5.57
2023-04-20T05:46:13.087Z,7.90
2023-04-20T05:48:41.260Z,5.40
2023-04-20T05:51:09.348Z,7.13
2023-04-20T05:53:37.376Z,10.45
2023-04-20T05:56:06.368Z,10.25
2023-04-20T05:58:37.443Z,6.93
2023-04-20T06:01:05.819Z,9.95
2023-04-20T06:03:35.515Z,8.07
2023-04-20T06:06:03.962Z,5.75
2023-04-20T06:08:32.144Z,5.85
2023-04-20T06:11:00.240Z,11.13
2023-04-20T06:13:28.489Z,6.97
2023-04-20T06:15:56.665Z,6.20
2023-04-20T06:18:27.875Z,6.68
2023-04-20T06:20:57.523Z,4.25
2023-04-20T06:23:25.526Z,5.78
2023-04-20T06:25:53.577Z,3.78
2023-04-20T06:28:21.871Z,9.05
2023-04-20T06:30:49.942Z,7.88
2023-04-20T06:33:18.022Z,7.22
2023-04-20T06:35:46.498Z,7.45
2023-04-20T06:38:15.830Z,7.68
2023-04-20T06:40:43.860Z,8.57
2023-04-20T06:43:12.306Z,9.93
2023-04-20T06:45:40.387Z,6.25
2023-04-20T06:48:23.582Z,6.10
2023-04-20T06:50:57.066Z,7.18
2023-04-20T06:53:26.544Z,14.15
2023-04-20T06:55:55.519Z,6.90
2023-04-20T06:58:23.924Z,6.05
2023-04-20T07:00:51.980Z,6.60
2023-04-20T07:03:20.240Z,7.88
2023-04-20T07:05:48.719Z,7.13
2023-04-20T07:08:16.780Z,7.97
2023-04-20T07:10:46.200Z,7.55
2023-04-20T07:13:14.658Z,10.70
2023-04-20T07:15:43.578Z,9.23
2023-04-20T07:18:11.710Z,9.93
2023-04-20T07:20:40.246Z,8.07
2023-04-20T07:23:08.293Z,9.13
2023-04-20T07:25:36.350Z,6.32
2023-04-20T07:28:06.102Z,7.68
2023-04-20T07:30:34.246Z,7.25
2023-04-20T07:33:02.252Z,7.85
2023-04-20T07:35:30.785Z,10.27
2023-04-20T07:37:58.807Z,6.13
2023-04-20T07:40:27.084Z,8.77
2023-04-20T07:42:55.459Z,9.13
2023-04-20T07:45:25.134Z,9.65
2023-04-20T07:47:55.129Z,8.20
2023-04-20T07:50:23.527Z,9.15
2023-04-20T07:52:51.544Z,8.85
2023-04-20T07:58:07.720Z,10.30
2023-04-20T08:00:37.329Z,9.80
2023-04-20T08:03:06.392Z,7.82
2023-04-20T08:05:34.866Z,8.80
2023-04-20T08:08:03.129Z,8.75
2023-04-20T08:10:31.208Z,10.50
2023-04-20T08:12:59.615Z,7.88
2023-04-20T08:15:27.847Z,6.60
2023-04-20T08:17:57.595Z,9.70
2023-04-20T08:20:25.944Z,5.88
2023-04-20T08:22:54.412Z,9.20
2023-04-20T08:25:23.658Z,7.75
2023-04-20T08:27:52.854Z,7.00
2023-04-20T08:30:20.981Z,7.63
2023-04-20T08:32:49.024Z,10.75
2023-04-20T08:35:18.918Z,8.10
2023-04-20T08:37:47.110Z,8.07
2023-04-20T08:40:15.450Z,10.65
2023-04-20T08:42:43.786Z,10.10
2023-04-20T08:45:11.900Z,8.98
2023-04-20T08:47:41.909Z,10.27
2023-04-20T08:50:10.963Z,7.85
2023-04-20T08:52:40.694Z,8.35
2023-04-20T08:55:09.595Z,7.55
2023-04-20T08:57:37.691Z,6.80
2023-04-20T09:00:12.832Z,8.23
2023-04-20T09:02:51.539Z,6.63
2023-04-20T09:05:29.246Z,7.22
2023-04-20T09:08:00.323Z,8.90
2023-04-20T09:10:40.314Z,8.20
2023-04-20T09:13:08.440Z,7.53
2023-04-20T09:15:36.637Z,10.45
2023-04-20T09:18:15.602Z,6.00
2023-04-20T09:20:43.754Z,5.88
2023-04-20T09:23:13.930Z,7.75
2023-04-20T09:25:43.635Z,8.65
2023-04-20T09:28:11.714Z,6.97
2023-04-20T09:30:41.422Z,7.47
2023-04-20T09:33:12.285Z,6.53
2023-04-20T09:35:41.885Z,6.75
2023-04-20T09:38:10.825Z,8.65
2023-04-20T09:40:40.221Z,5.05
2023-04-20T09:43:15.170Z,8.55
2023-04-20T09:45:44.287Z,7.07
2023-04-20T09:48:15.534Z,9.18
2023-04-20T09:50:49.801Z,8.80
2023-04-20T09:53:20.306Z,6.97
2023-04-20T09:55:51.230Z,8.30
2023-04-20T09:58:20.603Z,8.02
2023-04-20T10:00:49.023Z,5.97
2023-04-20T10:03:18.644Z,6.55
2023-04-20T10:05:47.229Z,7.35
2023-04-20T10:08:15.382Z,7.15
2023-04-20T10:10:48.257Z,5.65
2023-04-20T10:13:19.563Z,5.50
2023-04-20T10:15:47.964Z,4.93
2023-04-20T10:18:18.745Z,4.57
2023-04-20T10:20:47.449Z,6.88
2023-04-20T10:23:16.382Z,4.25
2023-04-20T10:25:47.560Z,3.42
2023-04-20T10:28:17.671Z,6.15
2023-04-20T10:30:52.824Z,6.25
2023-04-20T10:33:23.773Z,5.22
2023-04-20T10:35:55.121Z,4.30
2023-04-20T10:38:33.445Z,4.45
2023-04-20T10:41:08.356Z,7.13
2023-04-20T10:43:39.157Z,6.15
2023-04-20T10:46:17.507Z,5.75
2023-04-20T10:48:57.650Z,4.85
2023-04-20T10:51:26.530Z,5.68
2023-04-20T10:54:01.937Z,5.93
2023-04-20T10:56:38.290Z,5.30
2023-04-20T10:59:11.771Z,4.80
2023-04-20T11:01:41.120Z,5.57
2023-04-20T11:04:10.427Z,7.75
2023-04-20T11:06:39.509Z,5.22
2023-04-20T11:09:19.451Z,4.22
2023-04-20T11:11:47.897Z,5.25
2023-04-20T11:14:17.455Z,8.18
2023-04-20T11:16:53.912Z,5.82
2023-04-20T11:19:26.805Z,5.32
2023-04-20T11:21:55.254Z,4.63
2023-04-20T11:24:24.929Z,5.72
2023-04-20T11:26:54.394Z,7.00
2023-04-20T11:29:31.319Z,6.65
2023-04-20T11:32:00.245Z,6.90
2023-04-20T11:34:29.143Z,6.85
2023-04-20T11:36:57.518Z,4.63
2023-04-20T11:39:26.939Z,5.60
2023-04-20T11:41:56.583Z,4.72
2023-04-20T11:44:26.118Z,4.50
2023-04-20T11:46:57.279Z,5.28
2023-04-20T11:49:25.759Z,5.10
2023-04-20T11:51:54.212Z,3.85
2023-04-20T11:54:23.897Z,3.30
2023-04-20T11:56:52.584Z,3.33
2023-04-20T11:59:21.184Z,3.47
2023-04-20T12:01:49.803Z,3.65
2023-04-20T12:04:20.229Z,3.17
2023-04-20T12:06:48.582Z,4.28
2023-04-20T12:09:17.066Z,3.20
2023-04-20T12:11:45.520Z,3.65
2023-04-20T12:14:13.636Z,4.30
2023-04-20T12:16:41.832Z,4.35
2023-04-20T12:19:10.244Z,5.85
2023-04-20T12:21:39.654Z,4.68
2023-04-20T12:24:11.363Z,3.80
2023-04-20T12:26:39.596Z,2.70
2023-04-20T12:29:08.324Z,3.50
2023-04-20T12:31:37.075Z,5.15
2023-04-20T12:34:05.648Z,21.33
2023-04-20T12:36:35.105Z,4.30
2023-04-20T12:39:05.265Z,3.15
2023-04-20T12:41:34.313Z,4.07
2023-04-20T12:44:06.554Z,3.60
2023-04-20T12:49:04.018Z,6.13
2023-04-20T12:51:32.361Z,4.55
2023-04-20T12:54:00.880Z,5.22
2023-04-20T12:56:30.284Z,4.55
2023-04-20T12:58:58.304Z,4.38
2023-04-20T13:01:27.015Z,6.28
2023-04-20T13:03:55.440Z,6.07
2023-04-20T13:06:23.665Z,5.40
2023-04-20T13:08:52.199Z,4.75
2023-04-20T13:11:20.344Z,5.10
2023-04-20T13:13:49.893Z,5.25
2023-04-20T13:16:19.984Z,5.05
2023-04-20T13:18:48.146Z,5.65
2023-04-20T13:21:18.412Z,5.55
2023-04-20T13:23:46.389Z,6.72
2023-04-20T13:26:14.592Z,4.35
2023-04-20T13:28:42.735Z,5.50
2023-04-20T13:31:12.706Z,6.30
2023-04-20T13:33:40.887Z,5.45
2023-04-20T13:36:10.401Z,4.03
2023-04-20T13:38:38.420Z,6.05
2023-04-20T13:41:06.887Z,4.72
2023-04-20T13:43:35.051Z,4.72
2023-04-20T13:46:04.100Z,4.70
2023-04-20T13:48:33.624Z,6.25
2023-04-20T13:51:01.798Z,5.03
2023-04-20T13:53:29.810Z,5.43
2023-04-20T13:55:58.833Z,5.25
2023-04-20T13:58:28.720Z,4.25
2023-04-20T14:00:56.756Z,5.57
2023-04-20T14:03:26.747Z,4.60
2023-04-20T14:05:56.519Z,6.13
2023-04-20T14:08:24.525Z,7.07
2023-04-20T14:10:52.750Z,6.78
2023-04-20T14:13:20.970Z,6.22
2023-04-20T14:15:49.112Z,5.72
2023-04-20T14:18:17.299Z,5.50
2023-04-20T14:20:45.805Z,5.85
2023-04-20T14:23:15.309Z,5.13
2023-04-20T14:25:43.425Z,5.22
2023-04-20T14:28:11.597Z,5.93
2023-04-20T14:30:39.782Z,6.45
2023-04-20T14:33:08.138Z,5.80
2023-04-20T14:35:36.470Z,6.93
2023-04-20T14:38:04.481Z,5.75
2023-04-20T14:40:34.249Z,5.07
2023-04-20T14:43:02.426Z,4.85
2023-04-20T14:45:30.495Z,5.70
2023-04-20T14:47:58.905Z,7.53
2023-04-20T14:50:28.579Z,4.97
2023-04-20T14:52:57.099Z,7.40
2023-04-20T14:55:25.987Z,6.45
2023-04-20T14:58:00.596Z,5.18
2023-04-20T15:00:29.098Z,5.22
2023-04-20T15:02:57.716Z,7.20
2023-04-20T15:05:27.561Z,5.97
2023-04-20T15:07:55.968Z,5.60
2023-04-20T15:10:24.338Z,6.18
2023-04-20T15:12:52.610Z,7.13
2023-04-20T15:15:22.271Z,5.90
2023-04-20T15:17:50.561Z,5.43
2023-04-20T15:20:18.871Z,7.70
2023-04-20T15:22:46.951Z,6.38
2023-04-20T15:25:15.213Z,5.72
2023-04-20T15:27:43.348Z,5.47
2023-04-20T15:30:12.146Z,9.23
2023-04-20T15:32:41.792Z,6.90
2023-04-20T15:35:10.127Z,6.93
2023-04-20T15:37:38.363Z,7.03
2023-04-20T15:40:07.804Z,7.50
2023-04-20T15:42:37.548Z,6.57
2023-04-20T15:45:06.656Z,6.90
2023-04-20T15:47:34.901Z,6.75
2023-04-20T15:50:04.368Z,7.72
2023-04-20T15:52:33.421Z,8.10
2023-04-20T15:55:01.460Z,6.90
2023-04-20T15:57:31.172Z,6.95
2023-04-20T15:59:59.421Z,7.32
2023-04-20T16:02:27.700Z,10.00
2023-04-20T16:04:56.008Z,6.78
2023-04-20T16:07:25.558Z,10.13
2023-04-20T16:09:53.738Z,8.32
2023-04-20T16:12:21.831Z,7.57
2023-04-20T16:14:51.780Z,8.40
2023-04-20T16:17:21.914Z,7.75
2023-04-20T16:19:50.263Z,7.93
2023-04-20T16:22:18.315Z,7.72
2023-04-20T16:24:47.977Z,7.60
2023-04-20T16:27:16.004Z,7.80
2023-04-20T16:29:44.614Z,7.50
2023-04-20T16:32:13.944Z,8.27
2023-04-20T16:34:42.096Z,7.65
2023-04-20T16:37:10.185Z,8.48
2023-04-20T16:39:38.384Z,9.70
2023-04-20T16:42:07.839Z,7.80
2023-04-20T16:44:35.871Z,10.10
2023-04-20T16:47:04.046Z,8.07
2023-04-20T16:49:32.158Z,8.95
2023-04-20T16:52:00.151Z,6.97
2023-04-20T16:54:30.156Z,6.68
2023-04-20T16:56:58.197Z,8.02
2023-04-20T16:59:27.585Z,10.02
2023-04-20T17:01:55.947Z,8.10
2023-04-20T17:04:24.108Z,8.40
2023-04-20T17:06:52.939Z,8.38
2023-04-20T17:09:23.255Z,9.13
2023-04-20T17:11:51.296Z,8.82
2023-04-20T17:14:19.476Z,7.35
2023-04-20T17:16:50.929Z,7.18
2023-04-20T17:19:19.584Z,8.00
2023-04-20T17:21:47.973Z,8.32
2023-04-20T17:24:16.419Z,10.02
2023-04-20T17:26:46.234Z,10.98
2023-04-20T17:29:14.558Z,9.25
2023-04-20T17:31:43.480Z,10.45
2023-04-20T17:34:12.804Z,6.38
2023-04-20T17:36:41.066Z,13.77
2023-04-20T17:39:09.972Z,8.10
2023-04-20T17:41:37.971Z,7.93
2023-04-20T17:44:06.200Z,13.23
2023-04-20T17:46:34.364Z,10.50
2023-04-20T17:49:02.395Z,12.00
2023-04-20T17:51:31.915Z,11.50
2023-04-20T17:54:00.058Z,11.13
2023-04-20T17:56:28.159Z,9.15
2023-04-20T17:58:56.131Z,9.25
2023-04-20T18:01:24.312Z,7.18
2023-04-20T18:03:52.436Z,8.57
2023-04-20T18:06:20.629Z,8.75
2023-04-20T18:08:50.019Z,9.48
2023-04-20T18:11:18.276Z,7.05
2023-04-20T18:13:46.280Z,9.57
2023-04-20T18:16:14.481Z,8.57
2023-04-20T18:18:42.452Z,10.48
2023-04-20T18:21:12.000Z,9.65
2023-04-20T18:23:40.488Z,8.77
2023-04-20T18:26:17.036Z,8.65
2023-04-20T18:28:45.515Z,12.65
2023-04-20T18:31:14.075Z,21.55
2023-04-20T18:33:42.054Z,14.23
2023-04-20T18:36:10.319Z,11.77
2023-04-20T18:38:38.427Z,8.52
2023-04-20T18:41:06.425Z,17.98
2023-04-20T18:43:36.032Z,21.80
2023-04-20T18:46:03.983Z,15.23
2023-04-20T18:48:32.028Z,11.55
2023-04-20T18:51:01.668Z,11.45
2023-04-20T18:53:31.221Z,10.93
2023-04-20T18:56:02.082Z,9.52
2023-04-20T18:58:30.439Z,9.93
2023-04-20T19:01:01.282Z,8.32
2023-04-20T19:03:29.490Z,11.77
2023-04-20T19:05:57.566Z,10.80
2023-04-20T19:08:25.563Z,12.23
2023-04-20T19:10:56.576Z,9.98
2023-04-20T19:13:24.690Z,11.30
2023-04-20T19:15:57.656Z,10.38
2023-04-20T19:18:27.888Z,12.95
2023-04-20T19:20:57.951Z,11.32
2023-04-20T19:23:27.820Z,13.45
2023-04-20T19:25:55.820Z,20.35
2023-04-20T19:28:24.374Z,17.23
2023-04-20T19:30:52.785Z,14.77
2023-04-20T19:33:21.486Z,12.68
2023-04-20T19:35:51.465Z,13.45
2023-04-20T19:38:20.261Z,11.70
2023-04-20T19:40:49.346Z,15.65
2023-04-20T19:43:17.798Z,17.98
2023-04-20T19:45:45.992Z,13.57
2023-04-20T19:48:14.037Z,14.73
2023-04-20T19:50:42.241Z,12.40
2023-04-20T19:53:11.897Z,10.82
2023-04-20T19:55:40.228Z,17.45
2023-04-20T19:58:10.537Z,16.30
2023-04-20T20:00:38.924Z,13.52
2023-04-20T20:03:08.498Z,13.30
2023-04-20T20:05:36.800Z,14.15
2023-04-20T20:08:06.488Z,19.05
2023-04-20T20:10:35.949Z,22.17
2023-04-20T20:13:04.283Z,18.92
2023-04-20T20:15:33.331Z,20.33
2023-04-20T20:18:01.428Z,25.38
2023-04-20T20:20:30.585Z,20.88
2023-04-20T20:22:58.822Z,21.48
2023-04-20T20:25:28.845Z,18.85
2023-04-20T20:27:58.432Z,20.10
2023-04-20T20:30:26.462Z,22.15
2023-04-20T20:32:54.521Z,21.70
2023-04-20T20:35:23.914Z,24.70
2023-04-20T20:37:54.427Z,23.20
2023-04-20T20:40:22.570Z,22.00
2023-04-20T20:42:50.619Z,25.23
2023-04-20T20:45:20.184Z,20.35
2023-04-20T20:47:48.339Z,21.55
2023-04-20T20:50:17.559Z,24.20
2023-04-20T20:52:45.546Z,22.45
2023-04-20T20:55:13.837Z,21.80
2023-04-20T20:57:42.098Z,27.33
2023-04-20T21:00:11.763Z,29.98
2023-04-20T21:02:41.971Z,26.48
2023-04-20T21:05:10.692Z,25.20
2023-04-20T21:07:40.107Z,24.45
2023-04-20T21:10:09.026Z,25.70
2023-04-20T21:12:39.118Z,23.45
2023-04-20T21:15:08.367Z,24.00
2023-04-20T21:17:36.647Z,24.48
2023-04-20T21:20:09.195Z,21.35
2023-04-20T21:22:37.248Z,27.13
2023-04-20T21:25:06.332Z,24.25
2023-04-20T21:27:34.491Z,25.92
2023-04-20T21:30:02.666Z,22.65
2023-04-20T21:32:30.805Z,23.98
2023-04-20T21:34:58.794Z,24.25
2023-04-20T21:37:28.332Z,23.25
2023-04-20T21:39:56.462Z,28.50
2023-04-20T21:42:24.467Z,24.88
2023-04-20T21:44:52.666Z,28.75
2023-04-20T21:47:20.805Z,22.25
2023-04-20T21:49:48.817Z,20.77
2023-04-20T21:52:16.961Z,23.08
2023-04-20T21:54:46.650Z,21.60
2023-04-20T21:57:14.640Z,21.42
2023-04-20T21:59:42.872Z,22.98
2023-04-20T22:02:11.174Z,23.70
2023-04-20T22:04:39.548Z,24.10
2023-04-20T22:07:08.067Z,20.05
2023-04-20T22:09:36.237Z,24.95
2023-04-20T22:12:05.798Z,22.65
2023-04-20T22:14:33.961Z,22.60
2023-04-20T22:17:02.093Z,22.70
2023-04-20T22:19:30.377Z,22.95
2023-04-20T22:21:58.623Z,19.80
2023-04-20T22:24:26.763Z,21.70
2023-04-20T22:26:54.778Z,19.02
2023-04-20T22:29:24.424Z,19.27
2023-04-20T22:31:52.450Z,22.05
2023-04-20T22:34:20.465Z,19.65
2023-04-20T22:36:48.599Z,16.92
2023-04-20T22:39:17.016Z,22.70
2023-04-20T22:41:45.331Z,22.85
2023-04-20T22:44:13.372Z,21.67
2023-04-20T22:46:42.859Z,22.83
2023-04-20T22:49:10.980Z,28.30
2023-04-20T22:51:39.002Z,16.23
2023-04-20T22:54:07.317Z,22.92
2023-04-20T22:56:35.470Z,18.80
2023-04-20T22:59:03.487Z,20.17
2023-04-20T23:01:31.767Z,19.83
2023-04-20T23:04:01.539Z,22.15
2023-04-20T23:06:30.530Z,18.90
2023-04-20T23:09:00.113Z,21.85
2023-04-20T23:11:29.477Z,16.83
2023-04-20T23:13:57.557Z,16.13
2023-04-20T23:16:28.207Z,19.75
2023-04-20T23:18:58.215Z,19.02
2023-04-20T23:21:28.645Z,18.85
2023-04-20T23:23:57.773Z,16.02
2023-04-20T23:26:26.426Z,16.67
2023-04-20T23:28:54.942Z,17.77
2023-04-20T23:31:23.218Z,19.17
2023-04-20T23:33:51.264Z,17.55
2023-04-20T23:36:19.565Z,18.13
2023-04-20T23:38:48.926Z,17.23
2023-04-20T23:41:17.058Z,18.20
2023-04-20T23:43:45.380Z,18.10
2023-04-20T23:46:14.419Z,18.45
2023-04-20T23:48:42.470Z,16.05
2023-04-20T23:51:10.863Z,14.57
2023-04-20T23:53:39.973Z,15.27
2023-04-20T23:56:09.505Z,23.00
2023-04-20T23:58:38.207Z,17.80
